Herman, Kentucky
Current Conditions -  °F | °C
As of 6:52 AM on Saturday 25 Oct 2014 (Local Time) from KCKV Reporting Station
Haze Haze  
Wind Chill: 49°   Ceiling: 7000
Heat Index: 49°   Visibility: 5mi
Dew Point: 48°   Wind: 0mph
Humidity: 97%   Direction: NA
Pressure: 30.06"   Gusts: NA
Location:  36.705°N, 87.1786°W
Report Text: KCKV 251152Z AUTO 00000KT 5SM BR SCT045 BKN070 09/09 A3006 RMK AO2 SLP179 T00940089 10094 20067 58002
Loading
Personal Weather Stations






























Interactive Weather Map
Tropical Storm Tracking
New forecast layout! Learn more

10-Day Weather Forecast

Advertisements
Track Severe Weather on mobile